createdAt,value
2023-05-05T00:01:33.198Z,26.00
2023-05-05T00:04:05.780Z,23.60
2023-05-05T00:06:38.050Z,27.70
2023-05-05T00:09:10.197Z,24.80
2023-05-05T00:11:42.383Z,25.30
2023-05-05T00:14:14.541Z,26.40
2023-05-05T00:16:47.269Z,23.30
2023-05-05T00:19:19.613Z,24.40
2023-05-05T00:21:52.221Z,26.80
2023-05-05T00:24:24.746Z,24.80
2023-05-05T00:26:57.168Z,26.50
2023-05-05T00:29:29.428Z,26.80
2023-05-05T00:32:02.122Z,27.40
2023-05-05T00:34:34.368Z,26.90
2023-05-05T00:37:06.513Z,19.80
2023-05-05T00:39:38.691Z,23.60
2023-05-05T00:42:11.129Z,18.70
2023-05-05T00:44:44.991Z,19.50
2023-05-05T00:47:17.947Z,21.70
2023-05-05T00:49:50.241Z,22.40
2023-05-05T00:52:22.642Z,17.70
2023-05-05T00:54:54.868Z,19.50
2023-05-05T00:57:28.636Z,19.00
2023-05-05T01:00:02.493Z,23.60
2023-05-05T01:02:34.765Z,17.80
2023-05-05T01:05:07.937Z,22.40
2023-05-05T01:07:54.061Z,25.70
2023-05-05T01:10:38.039Z,20.60
2023-05-05T01:13:25.036Z,27.60
2023-05-05T01:16:09.216Z,20.50
2023-05-05T01:18:48.958Z,24.10
2023-05-05T01:21:27.585Z,20.70
2023-05-05T01:24:29.752Z,21.70
2023-05-05T01:27:21.285Z,26.70
2023-05-05T01:30:09.950Z,24.30
2023-05-05T01:32:48.987Z,21.30
2023-05-05T01:35:28.461Z,21.70
2023-05-05T01:38:07.336Z,20.70
2023-05-05T01:40:43.753Z,23.40
2023-05-05T01:43:17.994Z,21.00
2023-05-05T01:45:50.968Z,18.20
2023-05-05T01:48:24.544Z,24.50
2023-05-05T01:50:57.076Z,20.30
2023-05-05T01:53:30.532Z,24.90
2023-05-05T01:56:05.325Z,19.60
2023-05-05T01:58:38.774Z,24.30
2023-05-05T02:01:12.483Z,19.70
2023-05-05T02:03:48.212Z,19.30
2023-05-05T02:06:22.072Z,19.10
2023-05-05T02:08:58.516Z,18.00
2023-05-05T02:11:31.186Z,22.30
2023-05-05T02:14:04.313Z,21.40
2023-05-05T02:16:37.460Z,23.40
2023-05-05T02:19:12.315Z,22.60
2023-05-05T02:21:44.920Z,22.40
2023-05-05T02:24:17.394Z,25.00
2023-05-05T02:30:03.162Z,23.60
2023-05-05T02:32:38.845Z,23.70
2023-05-05T02:35:21.504Z,24.40
2023-05-05T02:38:02.705Z,22.90
2023-05-05T02:40:39.422Z,27.60
2023-05-05T02:43:16.806Z,32.70
2023-05-05T02:45:49.228Z,28.30
2023-05-05T02:48:22.296Z,32.30
2023-05-05T02:50:55.057Z,28.60
2023-05-05T02:53:35.678Z,25.80
2023-05-05T02:56:25.157Z,24.30
2023-05-05T02:59:05.796Z,26.80
2023-05-05T03:01:49.072Z,31.70
2023-05-05T03:04:29.020Z,26.30
2023-05-05T03:07:11.894Z,25.80
2023-05-05T03:09:48.104Z,23.10
2023-05-05T03:12:26.963Z,21.70
2023-05-05T03:15:14.617Z,20.10
2023-05-05T03:17:47.546Z,16.90
2023-05-05T03:20:21.651Z,20.80
2023-05-05T03:22:54.919Z,22.60
2023-05-05T03:25:44.898Z,20.00
2023-05-05T03:28:21.939Z,22.50
2023-05-05T03:31:00.826Z,23.00
2023-05-05T03:33:37.347Z,23.10
2023-05-05T03:36:10.328Z,18.30
2023-05-05T03:38:43.115Z,26.60
2023-05-05T03:41:15.524Z,22.40
2023-05-05T03:43:47.780Z,19.70
2023-05-05T03:46:20.134Z,18.90
2023-05-05T03:48:53.014Z,19.80
2023-05-05T03:51:25.669Z,23.20
2023-05-05T03:53:58.122Z,18.20
2023-05-05T03:56:30.728Z,18.10
2023-05-05T03:59:03.229Z,19.00
2023-05-05T04:01:35.689Z,15.20
2023-05-05T04:04:09.616Z,18.90
2023-05-05T04:06:41.858Z,23.80
2023-05-05T04:09:14.670Z,18.50
2023-05-05T04:11:49.170Z,22.60
2023-05-05T04:14:21.666Z,20.50
2023-05-05T04:16:53.861Z,17.20
2023-05-05T04:19:26.444Z,17.20
2023-05-05T04:21:58.791Z,19.60
2023-05-05T04:24:32.648Z,17.40
2023-05-05T04:27:05.252Z,19.40
2023-05-05T04:29:37.439Z,22.50
2023-05-05T04:32:09.807Z,27.70
2023-05-05T04:34:42.363Z,23.30
2023-05-05T04:37:14.925Z,29.80
2023-05-05T04:39:47.271Z,28.10
2023-05-05T04:42:22.217Z,29.10
2023-05-05T04:44:55.295Z,30.40
2023-05-05T04:47:28.311Z,35.10
2023-05-05T04:50:01.071Z,33.70
2023-05-05T04:52:34.338Z,31.90
2023-05-05T04:55:07.520Z,33.10
2023-05-05T04:57:39.622Z,38.00
2023-05-05T05:00:13.629Z,34.40
2023-05-05T05:02:45.899Z,37.30
2023-05-05T05:05:18.390Z,39.10
2023-05-05T05:07:51.113Z,39.00
2023-05-05T05:10:23.702Z,39.70
2023-05-05T05:12:55.907Z,41.20
2023-05-05T05:15:28.761Z,41.80
2023-05-05T05:18:05.267Z,38.10
2023-05-05T05:20:38.381Z,36.00
2023-05-05T05:23:10.884Z,31.20
2023-05-05T05:25:47.116Z,37.60
2023-05-05T05:28:20.161Z,31.60
2023-05-05T05:30:56.338Z,33.20
2023-05-05T05:33:28.951Z,30.00
2023-05-05T05:36:01.545Z,34.40
2023-05-05T05:38:34.074Z,30.00
2023-05-05T05:41:09.613Z,28.60
2023-05-05T05:43:42.688Z,28.50
2023-05-05T05:46:14.969Z,30.40
2023-05-05T05:48:48.350Z,27.20
2023-05-05T05:51:20.539Z,24.40
2023-05-05T05:57:00.301Z,12.40
2023-05-05T05:59:33.164Z,13.30
2023-05-05T06:02:08.108Z,13.30
2023-05-05T06:04:40.553Z,13.50
2023-05-05T06:07:13.188Z,19.20
2023-05-05T06:12:52.931Z,11.60
2023-05-05T06:15:25.957Z,16.00
2023-05-05T06:17:58.583Z,16.40
2023-05-05T06:20:31.401Z,16.80
2023-05-05T06:23:03.617Z,14.00
2023-05-05T06:25:38.093Z,12.00
2023-05-05T06:28:10.243Z,10.90
2023-05-05T06:30:42.308Z,13.00
2023-05-05T06:33:14.467Z,14.30
2023-05-05T06:35:47.871Z,14.40
2023-05-05T06:38:20.381Z,9.70
2023-05-05T06:40:52.515Z,10.70
2023-05-05T06:43:24.722Z,11.40
2023-05-05T06:46:00.320Z,10.30
2023-05-05T06:48:32.460Z,8.50
2023-05-05T06:51:04.706Z,9.00
2023-05-05T06:53:36.890Z,7.80
2023-05-05T06:56:09.946Z,9.30
2023-05-05T06:58:42.558Z,12.30
2023-05-05T07:01:15.012Z,7.30
2023-05-05T07:03:47.580Z,5.60
2023-05-05T07:06:19.692Z,5.20
2023-05-05T07:08:51.878Z,4.90
2023-05-05T07:11:24.129Z,4.20
2023-05-05T07:13:56.729Z,3.60
2023-05-05T07:16:28.835Z,6.00
2023-05-05T07:19:00.962Z,4.40
2023-05-05T07:21:35.432Z,4.80
2023-05-05T07:24:08.556Z,5.40
2023-05-05T07:26:40.690Z,4.60
2023-05-05T07:29:15.866Z,3.40
2023-05-05T07:31:48.034Z,4.40
2023-05-05T07:34:20.318Z,7.40
2023-05-05T07:36:52.620Z,3.30
2023-05-05T07:39:24.753Z,4.70
2023-05-05T07:41:56.936Z,3.80
2023-05-05T07:44:29.226Z,6.00
2023-05-05T07:47:01.304Z,2.60
2023-05-05T07:49:33.456Z,3.50
2023-05-05T07:52:05.962Z,3.90
2023-05-05T07:54:38.097Z,3.80
2023-05-05T07:57:10.295Z,4.20
2023-05-05T07:59:43.839Z,3.10
2023-05-05T08:02:17.274Z,4.00
2023-05-05T08:04:50.218Z,6.20
2023-05-05T08:10:30.619Z,3.30
2023-05-05T08:13:03.114Z,4.50
2023-05-05T08:15:35.365Z,5.70
2023-05-05T08:18:11.166Z,2.80
2023-05-05T08:20:43.501Z,2.70
2023-05-05T08:23:15.609Z,3.50
2023-05-05T08:25:50.927Z,3.00
2023-05-05T08:28:26.605Z,4.40
2023-05-05T08:30:59.419Z,13.90
2023-05-05T08:33:32.039Z,4.20
2023-05-05T08:36:04.564Z,4.10
2023-05-05T08:38:37.069Z,3.80
2023-05-05T08:41:14.309Z,3.80
2023-05-05T08:43:49.647Z,4.40
2023-05-05T08:46:23.167Z,4.60
2023-05-05T08:48:57.488Z,4.70
2023-05-05T08:51:34.807Z,3.30
2023-05-05T08:54:11.780Z,5.30
2023-05-05T08:56:45.585Z,4.20
2023-05-05T08:59:20.195Z,4.80
2023-05-05T09:01:57.684Z,3.10
2023-05-05T09:04:30.001Z,5.40
2023-05-05T09:07:02.706Z,4.40
2023-05-05T09:09:35.044Z,5.00
2023-05-05T09:12:08.129Z,2.70
2023-05-05T09:14:40.335Z,6.20
2023-05-05T09:17:26.477Z,4.00
2023-05-05T09:20:10.753Z,2.90
2023-05-05T09:22:44.616Z,2.60
2023-05-05T09:25:18.338Z,4.00
2023-05-05T09:27:51.700Z,2.30
2023-05-05T09:30:28.081Z,8.60
2023-05-05T09:33:02.342Z,3.50
2023-05-05T09:35:51.711Z,6.20
2023-05-05T09:38:25.760Z,4.60
2023-05-05T09:40:58.915Z,4.40
2023-05-05T09:43:31.672Z,3.80
2023-05-05T09:46:10.548Z,3.20
2023-05-05T09:48:42.630Z,4.20
2023-05-05T09:51:14.772Z,5.10
2023-05-05T09:53:46.986Z,3.10
2023-05-05T09:56:20.850Z,4.00
2023-05-05T09:59:09.390Z,6.80
2023-05-05T10:01:43.632Z,5.10
2023-05-05T10:04:28.493Z,3.70
2023-05-05T10:07:01.441Z,2.20
2023-05-05T10:09:33.734Z,2.90
2023-05-05T10:12:06.882Z,3.60
2023-05-05T10:14:39.569Z,4.60
2023-05-05T10:17:13.464Z,2.70
2023-05-05T10:19:46.642Z,5.40
2023-05-05T10:22:23.525Z,3.50
2023-05-05T10:25:03.690Z,4.60
2023-05-05T10:27:43.880Z,2.70
2023-05-05T10:30:23.827Z,4.60
2023-05-05T10:33:14.176Z,5.00
2023-05-05T10:36:02.196Z,4.20
2023-05-05T10:38:34.909Z,5.10
2023-05-05T10:41:08.013Z,4.60
2023-05-05T10:43:41.801Z,4.50
2023-05-05T10:46:16.718Z,4.00
2023-05-05T10:48:57.049Z,2.80
2023-05-05T10:51:41.046Z,4.00
2023-05-05T10:54:29.576Z,2.70
2023-05-05T10:57:05.046Z,2.60
2023-05-05T10:59:44.148Z,3.50
2023-05-05T11:02:27.307Z,2.60
2023-05-05T11:05:18.377Z,2.70
2023-05-05T11:08:16.408Z,2.40
2023-05-05T11:10:51.293Z,2.60
2023-05-05T11:13:23.937Z,9.90
2023-05-05T11:15:58.268Z,4.20
2023-05-05T11:18:36.048Z,3.10
2023-05-05T11:21:19.494Z,3.80
2023-05-05T11:23:53.233Z,2.50
2023-05-05T11:26:52.556Z,4.40
2023-05-05T11:29:25.865Z,2.40
2023-05-05T11:32:14.382Z,3.30
2023-05-05T11:34:53.611Z,2.50
2023-05-05T11:37:28.495Z,4.60
2023-05-05T11:40:11.900Z,5.00
2023-05-05T11:42:44.346Z,3.70
2023-05-05T11:45:30.158Z,2.90
2023-05-05T11:48:28.105Z,2.90
2023-05-05T11:51:05.487Z,2.20
2023-05-05T11:53:38.406Z,2.90
2023-05-05T11:56:12.349Z,2.60
2023-05-05T11:58:44.603Z,3.60
2023-05-05T12:01:17.378Z,3.30
2023-05-05T12:03:50.178Z,3.40
2023-05-05T12:06:22.711Z,3.40
2023-05-05T12:08:55.030Z,3.90
2023-05-05T12:11:27.963Z,3.00
2023-05-05T12:14:13.222Z,4.00
2023-05-05T12:16:56.991Z,3.40
2023-05-05T12:19:33.106Z,3.10
2023-05-05T12:22:06.232Z,3.30
2023-05-05T12:24:38.907Z,3.30
2023-05-05T12:27:14.525Z,7.90
2023-05-05T12:29:46.747Z,3.70
2023-05-05T12:32:25.871Z,2.80
2023-05-05T12:34:58.512Z,2.50
2023-05-05T12:37:30.833Z,3.40
2023-05-05T12:40:03.975Z,4.40
2023-05-05T12:42:41.129Z,3.00
2023-05-05T12:45:19.299Z,3.50
2023-05-05T12:47:51.609Z,3.20
2023-05-05T12:50:34.314Z,18.40
2023-05-05T12:53:06.848Z,13.60
2023-05-05T12:55:56.872Z,6.40
2023-05-05T12:58:30.614Z,8.10
2023-05-05T13:01:15.018Z,4.00
2023-05-05T13:03:49.184Z,5.10
2023-05-05T13:06:26.191Z,2.40
2023-05-05T13:08:58.397Z,2.60
2023-05-05T13:11:30.659Z,3.20
2023-05-05T13:14:02.746Z,2.80
2023-05-05T13:16:34.805Z,5.20
2023-05-05T13:19:06.973Z,3.40
2023-05-05T13:21:39.467Z,3.50
2023-05-05T13:24:21.275Z,3.40
2023-05-05T13:26:58.026Z,2.40
2023-05-05T13:29:31.668Z,2.70
2023-05-05T13:32:04.255Z,2.20
2023-05-05T13:34:54.197Z,5.20
2023-05-05T13:37:26.389Z,5.00
2023-05-05T13:40:00.307Z,2.80
2023-05-05T13:42:32.364Z,3.00
2023-05-05T13:45:04.660Z,2.40
2023-05-05T13:47:36.730Z,4.90
2023-05-05T13:50:10.323Z,4.60
2023-05-05T13:52:42.966Z,6.00
2023-05-05T13:55:17.533Z,4.10
2023-05-05T13:57:49.637Z,3.80
2023-05-05T14:00:23.374Z,2.20
2023-05-05T14:02:55.647Z,2.40
2023-05-05T14:05:28.103Z,2.40
2023-05-05T14:08:00.702Z,4.60
2023-05-05T14:10:32.851Z,5.50
2023-05-05T14:13:04.969Z,2.50
2023-05-05T14:15:36.984Z,3.80
2023-05-05T14:18:09.712Z,2.20
2023-05-05T14:20:41.821Z,4.00
2023-05-05T14:23:13.794Z,2.90
2023-05-05T14:25:45.850Z,5.60
2023-05-05T14:28:18.367Z,5.40
2023-05-05T14:30:50.487Z,4.10
2023-05-05T14:33:23.367Z,2.90
2023-05-05T14:35:56.596Z,4.10
2023-05-05T14:38:31.485Z,3.40
2023-05-05T14:41:04.776Z,4.20
2023-05-05T14:43:36.918Z,3.50
2023-05-05T14:52:18.395Z,2.30
2023-05-05T14:54:50.402Z,3.10
2023-05-05T14:57:22.524Z,6.20
2023-05-05T14:59:54.678Z,3.80
2023-05-05T15:02:26.889Z,2.30
2023-05-05T15:04:58.968Z,3.10
2023-05-05T15:07:31.023Z,2.70
2023-05-05T15:10:05.303Z,7.30
2023-05-05T15:12:37.614Z,5.30
2023-05-05T15:15:11.383Z,4.10
2023-05-05T15:17:44.256Z,4.70
2023-05-05T15:20:16.562Z,5.30
2023-05-05T15:22:55.262Z,5.00
2023-05-05T15:25:27.865Z,6.80
2023-05-05T15:28:01.051Z,4.00
2023-05-05T15:30:33.510Z,4.30
2023-05-05T15:33:05.715Z,4.10
2023-05-05T15:35:37.789Z,4.20
2023-05-05T15:38:10.172Z,4.70
2023-05-05T15:40:43.082Z,5.20
2023-05-05T15:43:15.491Z,5.20
2023-05-05T15:45:47.954Z,5.90
2023-05-05T15:48:19.896Z,3.70
2023-05-05T15:50:51.977Z,2.60
2023-05-05T15:53:24.163Z,2.40
2023-05-05T15:55:56.666Z,5.20
2023-05-05T15:58:30.547Z,3.40
2023-05-05T16:01:03.618Z,2.50
2023-05-05T16:03:36.624Z,3.10
2023-05-05T16:06:10.165Z,2.80
2023-05-05T16:08:44.670Z,5.30
2023-05-05T16:11:16.944Z,2.60
2023-05-05T16:13:49.012Z,5.50
2023-05-05T16:16:22.300Z,3.90
2023-05-05T16:18:54.411Z,4.90
2023-05-05T16:21:27.669Z,4.00
2023-05-05T16:24:00.056Z,8.00
2023-05-05T16:26:35.955Z,4.40
2023-05-05T16:29:08.141Z,3.60
2023-05-05T16:31:40.765Z,4.40
2023-05-05T16:34:13.135Z,4.30
2023-05-05T16:36:45.225Z,4.30
2023-05-05T16:39:19.992Z,4.60
2023-05-05T16:41:52.074Z,4.40
2023-05-05T16:44:24.408Z,3.60
2023-05-05T16:46:56.442Z,3.60
2023-05-05T16:49:28.701Z,8.30
2023-05-05T16:52:01.517Z,39.20
2023-05-05T16:54:34.403Z,61.50
2023-05-05T16:57:07.101Z,10.80
2023-05-05T16:59:39.138Z,6.20
2023-05-05T17:02:11.612Z,8.40
2023-05-05T17:04:43.876Z,5.80
2023-05-05T17:07:15.935Z,3.90
2023-05-05T17:09:48.201Z,6.60
2023-05-05T17:12:20.269Z,4.40
2023-05-05T17:14:52.506Z,5.60
2023-05-05T17:17:24.577Z,8.00
2023-05-05T17:19:56.889Z,5.60
2023-05-05T17:22:28.980Z,7.90
2023-05-05T17:25:01.000Z,8.20
2023-05-05T17:27:33.131Z,9.80
2023-05-05T17:30:05.586Z,8.30
2023-05-05T17:32:37.725Z,8.00
2023-05-05T17:35:11.198Z,7.00
2023-05-05T17:37:43.809Z,9.00
2023-05-05T17:40:17.356Z,6.70
2023-05-05T17:42:49.383Z,7.60
2023-05-05T17:45:21.510Z,6.60
2023-05-05T17:47:54.112Z,7.90
2023-05-05T17:50:26.151Z,7.70
2023-05-05T17:52:58.543Z,8.00
2023-05-05T17:55:30.644Z,7.40
2023-05-05T17:58:02.619Z,10.90
2023-05-05T18:00:34.617Z,14.60
2023-05-05T18:03:07.162Z,12.30
2023-05-05T18:05:40.319Z,10.60
2023-05-05T18:08:12.534Z,11.90
2023-05-05T18:10:44.733Z,12.10
2023-05-05T18:13:16.977Z,11.20
2023-05-05T18:15:49.044Z,9.90
2023-05-05T18:18:21.151Z,8.20
2023-05-05T18:20:53.289Z,9.50
2023-05-05T18:23:25.539Z,7.10
2023-05-05T18:25:57.629Z,8.20
2023-05-05T18:28:29.692Z,6.90
2023-05-05T18:31:01.842Z,4.90
2023-05-05T18:33:33.961Z,5.60
2023-05-05T18:36:11.623Z,7.50
2023-05-05T18:38:43.607Z,5.80
2023-05-05T18:41:16.299Z,7.30
2023-05-05T18:43:48.735Z,8.00
2023-05-05T18:46:22.588Z,8.10
2023-05-05T18:48:54.672Z,6.70
2023-05-05T18:51:28.444Z,9.90
2023-05-05T18:54:03.064Z,9.60
2023-05-05T18:56:35.065Z,9.70
2023-05-05T18:59:09.117Z,12.50
2023-05-05T19:01:43.032Z,16.10
2023-05-05T19:04:30.089Z,13.80
2023-05-05T19:07:03.661Z,17.50
2023-05-05T19:09:36.087Z,18.10
2023-05-05T19:12:08.862Z,19.90
2023-05-05T19:14:41.250Z,24.30
2023-05-05T19:17:13.351Z,25.00
2023-05-05T19:19:45.465Z,22.80
2023-05-05T19:22:18.727Z,25.40
2023-05-05T19:24:50.811Z,32.60
2023-05-05T19:27:22.952Z,34.80
2023-05-05T19:29:55.030Z,24.10
2023-05-05T19:32:27.252Z,33.80
2023-05-05T19:34:59.690Z,39.40
2023-05-05T19:37:31.794Z,36.30
2023-05-05T19:40:06.724Z,46.50
2023-05-05T19:42:39.037Z,45.60
2023-05-05T19:45:11.870Z,45.00
2023-05-05T19:47:44.482Z,40.10
2023-05-05T19:50:16.645Z,43.70
2023-05-05T19:52:48.822Z,32.20
2023-05-05T19:55:22.924Z,33.30
2023-05-05T19:57:55.098Z,32.60
2023-05-05T20:00:27.406Z,33.30
2023-05-05T20:02:59.721Z,36.40
2023-05-05T20:05:31.993Z,43.90
2023-05-05T20:08:04.221Z,43.70
2023-05-05T20:10:36.652Z,38.50
2023-05-05T20:13:08.944Z,34.10
2023-05-05T20:15:41.319Z,33.90
2023-05-05T20:18:13.576Z,24.70
2023-05-05T20:20:45.754Z,29.40
2023-05-05T20:23:17.905Z,22.40
2023-05-05T20:25:50.417Z,25.80
2023-05-05T20:28:22.816Z,24.50
2023-05-05T20:30:54.902Z,29.30
2023-05-05T20:33:27.208Z,24.20
2023-05-05T20:35:59.423Z,22.00
2023-05-05T20:38:34.954Z,15.60
2023-05-05T20:41:07.222Z,15.60
2023-05-05T20:43:40.343Z,18.10
2023-05-05T20:46:13.890Z,15.60
2023-05-05T20:48:46.365Z,10.30
2023-05-05T20:51:18.481Z,15.30
2023-05-05T20:53:50.932Z,12.40
2023-05-05T20:56:23.029Z,12.10
2023-05-05T20:58:56.775Z,11.60
2023-05-05T21:01:29.473Z,9.70
2023-05-05T21:04:01.732Z,15.10
2023-05-05T21:06:35.105Z,15.60
2023-05-05T21:09:07.809Z,9.60
2023-05-05T21:11:40.104Z,7.40
2023-05-05T21:14:12.287Z,9.80
2023-05-05T21:16:44.591Z,11.10
2023-05-05T21:19:16.708Z,10.80
2023-05-05T21:21:49.227Z,10.20
2023-05-05T21:24:21.504Z,10.40
2023-05-05T21:26:53.583Z,14.00
2023-05-05T21:29:26.004Z,10.80
2023-05-05T21:31:58.246Z,11.10
2023-05-05T21:34:30.854Z,9.50
2023-05-05T21:37:03.246Z,14.10
2023-05-05T21:39:35.567Z,12.80
2023-05-05T21:42:08.207Z,11.20
2023-05-05T21:44:40.322Z,12.60
2023-05-05T21:47:12.502Z,10.00
2023-05-05T21:49:44.717Z,11.20
2023-05-05T21:52:16.918Z,9.00
2023-05-05T21:54:49.231Z,13.30
2023-05-05T21:57:21.484Z,15.60
2023-05-05T21:59:53.610Z,14.10
2023-05-05T22:02:25.850Z,15.20
2023-05-05T22:04:58.122Z,13.00
2023-05-05T22:07:31.717Z,18.70
2023-05-05T22:10:05.458Z,13.20
2023-05-05T22:12:37.734Z,13.50
2023-05-05T22:15:12.025Z,13.30
2023-05-05T22:17:44.140Z,13.00
2023-05-05T22:20:16.789Z,18.30
2023-05-05T22:22:48.873Z,13.80
2023-05-05T22:25:21.071Z,16.60
2023-05-05T22:27:53.193Z,12.40
2023-05-05T22:30:25.319Z,11.40
2023-05-05T22:32:57.646Z,15.60
2023-05-05T22:35:29.966Z,16.40
2023-05-05T22:38:02.658Z,15.70
2023-05-05T22:40:34.889Z,13.90
2023-05-05T22:43:07.155Z,12.20
2023-05-05T22:45:39.297Z,12.60
2023-05-05T22:48:14.091Z,15.80
2023-05-05T22:50:46.519Z,10.30
2023-05-05T22:53:21.071Z,14.40
2023-05-05T22:55:53.166Z,13.70
2023-05-05T22:58:25.902Z,11.60
2023-05-05T23:00:58.045Z,12.70
2023-05-05T23:03:30.215Z,13.80
2023-05-05T23:06:05.195Z,16.50
2023-05-05T23:08:37.399Z,11.90
2023-05-05T23:11:09.763Z,11.70
2023-05-05T23:13:41.932Z,11.20
2023-05-05T23:16:14.089Z,12.70
2023-05-05T23:18:49.355Z,15.80
2023-05-05T23:21:21.542Z,10.60
2023-05-05T23:23:55.051Z,9.80
2023-05-05T23:26:27.267Z,13.80
2023-05-05T23:28:59.625Z,11.70
2023-05-05T23:31:32.060Z,13.30
2023-05-05T23:34:04.357Z,15.50
2023-05-05T23:36:36.479Z,10.50
2023-05-05T23:39:08.999Z,12.10
2023-05-05T23:41:41.318Z,11.70
2023-05-05T23:44:13.414Z,11.70
2023-05-05T23:46:47.707Z,15.70
2023-05-05T23:49:20.218Z,10.50
2023-05-05T23:51:52.437Z,10.40
2023-05-05T23:54:27.662Z,12.10
2023-05-05T23:57:00.318Z,11.30
2023-05-05T23:59:32.552Z,13.60
